sensor_id;sensor_type;location;lat;lon;timestamp;temperature;humidity
29353;DHT22;16344;50.364;8.944;2023-11-18T00:00:34;4.50;1.00
29353;DHT22;16344;50.364;8.944;2023-11-18T00:02:59;4.50;1.00
29353;DHT22;16344;50.364;8.944;2023-11-18T00:05:25;4.60;1.00
29353;DHT22;16344;50.364;8.944;2023-11-18T00:07:50;4.50;1.00
29353;DHT22;16344;50.364;8.944;2023-11-18T00:10:16;4.50;1.00
29353;DHT22;16344;50.364;8.944;2023-11-18T00:12:42;4.20;1.00
29353;DHT22;16344;50.364;8.944;2023-11-18T00:15:08;4.20;1.00
29353;DHT22;16344;50.364;8.944;2023-11-18T00:17:37;4.20;1.00
29353;DHT22;16344;50.364;8.944;2023-11-18T00:20:02;4.20;1.00
29353;DHT22;16344;50.364;8.944;2023-11-18T00:22:34;4.30;1.00
29353;DHT22;16344;50.364;8.944;2023-11-18T00:25:00;4.20;1.00
29353;DHT22;16344;50.364;8.944;2023-11-18T00:27:25;4.20;1.00
29353;DHT22;16344;50.364;8.944;2023-11-18T00:29:51;4.00;1.00
29353;DHT22;16344;50.364;8.944;2023-11-18T00:32:18;4.10;1.00
29353;DHT22;16344;50.364;8.944;2023-11-18T00:34:43;4.00;1.00
29353;DHT22;16344;50.364;8.944;2023-11-18T00:37:09;4.10;1.00
29353;DHT22;16344;50.364;8.944;2023-11-18T00:39:35;4.00;1.00
29353;DHT22;16344;50.364;8.944;2023-11-18T00:42:02;4.00;1.00
29353;DHT22;16344;50.364;8.944;2023-11-18T00:44:28;4.00;1.00
29353;DHT22;16344;50.364;8.944;2023-11-18T00:46:53;4.10;1.00
29353;DHT22;16344;50.364;8.944;2023-11-18T00:49:19;4.00;1.00
29353;DHT22;16344;50.364;8.944;2023-11-18T00:51:44;4.10;1.00
29353;DHT22;16344;50.364;8.944;2023-11-18T00:54:10;4.10;1.00
29353;DHT22;16344;50.364;8.944;2023-11-18T00:56:36;4.10;1.00
29353;DHT22;16344;50.364;8.944;2023-11-18T00:59:01;4.00;1.00
29353;DHT22;16344;50.364;8.944;2023-11-18T01:01:27;4.10;1.00
29353;DHT22;16344;50.364;8.944;2023-11-18T01:03:53;4.10;1.00
29353;DHT22;16344;50.364;8.944;2023-11-18T01:06:19;4.10;1.00
29353;DHT22;16344;50.364;8.944;2023-11-18T01:08:45;3.90;1.00
29353;DHT22;16344;50.364;8.944;2023-11-18T01:11:10;3.90;1.00
29353;DHT22;16344;50.364;8.944;2023-11-18T01:13:36;4.00;1.00
29353;DHT22;16344;50.364;8.944;2023-11-18T01:16:01;4.10;1.00
29353;DHT22;16344;50.364;8.944;2023-11-18T01:18:27;4.10;1.00
29353;DHT22;16344;50.364;8.944;2023-11-18T01:20:53;4.10;1.00
29353;DHT22;16344;50.364;8.944;2023-11-18T01:23:18;4.10;1.00
29353;DHT22;16344;50.364;8.944;2023-11-18T01:25:44;4.00;1.00
29353;DHT22;16344;50.364;8.944;2023-11-18T01:28:09;3.90;1.00
29353;DHT22;16344;50.364;8.944;2023-11-18T01:30:34;3.90;1.00
29353;DHT22;16344;50.364;8.944;2023-11-18T01:33:00;3.80;1.00
29353;DHT22;16344;50.364;8.944;2023-11-18T01:35:29;3.90;1.00
29353;DHT22;16344;50.364;8.944;2023-11-18T01:37:54;3.80;1.00
29353;DHT22;16344;50.364;8.944;2023-11-18T01:40:20;3.90;1.00
29353;DHT22;16344;50.364;8.944;2023-11-18T01:42:45;3.70;1.00
29353;DHT22;16344;50.364;8.944;2023-11-18T01:45:15;3.60;99.90
29353;DHT22;16344;50.364;8.944;2023-11-18T01:47:41;3.40;99.90
29353;DHT22;16344;50.364;8.944;2023-11-18T01:50:08;3.20;99.90
29353;DHT22;16344;50.364;8.944;2023-11-18T01:52:38;3.10;1.00
29353;DHT22;16344;50.364;8.944;2023-11-18T01:55:04;3.00;1.00
29353;DHT22;16344;50.364;8.944;2023-11-18T01:57:32;3.10;1.00
29353;DHT22;16344;50.364;8.944;2023-11-18T01:59:58;3.20;1.00
29353;DHT22;16344;50.364;8.944;2023-11-18T02:02:25;3.10;1.00
29353;DHT22;16344;50.364;8.944;2023-11-18T02:04:50;3.20;1.00
29353;DHT22;16344;50.364;8.944;2023-11-18T02:07:16;3.30;1.00
29353;DHT22;16344;50.364;8.944;2023-11-18T02:09:41;3.30;1.00
29353;DHT22;16344;50.364;8.944;2023-11-18T02:14:35;3.30;1.00
29353;DHT22;16344;50.364;8.944;2023-11-18T02:17:03;3.40;1.00
29353;DHT22;16344;50.364;8.944;2023-11-18T02:19:29;3.30;1.00
29353;DHT22;16344;50.364;8.944;2023-11-18T02:21:55;3.30;1.00
29353;DHT22;16344;50.364;8.944;2023-11-18T02:24:25;3.30;1.00
29353;DHT22;16344;50.364;8.944;2023-11-18T02:26:52;3.30;1.00
29353;DHT22;16344;50.364;8.944;2023-11-18T02:29:17;3.20;1.00
29353;DHT22;16344;50.364;8.944;2023-11-18T02:31:43;3.20;1.00
29353;DHT22;16344;50.364;8.944;2023-11-18T02:34:14;3.10;1.00
29353;DHT22;16344;50.364;8.944;2023-11-18T02:36:44;3.20;1.00
29353;DHT22;16344;50.364;8.944;2023-11-18T02:39:12;3.20;1.00
29353;DHT22;16344;50.364;8.944;2023-11-18T02:41:42;3.30;1.00
29353;DHT22;16344;50.364;8.944;2023-11-18T02:44:10;3.30;1.00
29353;DHT22;16344;50.364;8.944;2023-11-18T02:46:36;3.20;1.00
29353;DHT22;16344;50.364;8.944;2023-11-18T02:49:02;3.20;1.00
29353;DHT22;16344;50.364;8.944;2023-11-18T02:51:28;3.20;1.00
29353;DHT22;16344;50.364;8.944;2023-11-18T02:53:56;3.20;1.00
29353;DHT22;16344;50.364;8.944;2023-11-18T02:56:22;3.10;1.00
29353;DHT22;16344;50.364;8.944;2023-11-18T02:58:47;3.00;1.00
29353;DHT22;16344;50.364;8.944;2023-11-18T03:01:13;2.80;1.00
29353;DHT22;16344;50.364;8.944;2023-11-18T03:03:38;2.70;1.00
29353;DHT22;16344;50.364;8.944;2023-11-18T03:06:04;2.60;1.00
29353;DHT22;16344;50.364;8.944;2023-11-18T03:08:31;2.50;1.00
29353;DHT22;16344;50.364;8.944;2023-11-18T03:10:56;2.50;1.00
29353;DHT22;16344;50.364;8.944;2023-11-18T03:13:23;2.50;1.00
29353;DHT22;16344;50.364;8.944;2023-11-18T03:15:49;2.60;1.00
29353;DHT22;16344;50.364;8.944;2023-11-18T03:18:15;2.60;1.00
29353;DHT22;16344;50.364;8.944;2023-11-18T03:20:40;2.70;1.00
29353;DHT22;16344;50.364;8.944;2023-11-18T03:23:06;2.80;1.00
29353;DHT22;16344;50.364;8.944;2023-11-18T03:25:34;2.80;1.00
29353;DHT22;16344;50.364;8.944;2023-11-18T03:28:00;2.80;1.00
29353;DHT22;16344;50.364;8.944;2023-11-18T03:30:25;2.70;1.00
29353;DHT22;16344;50.364;8.944;2023-11-18T03:32:51;2.50;1.00
29353;DHT22;16344;50.364;8.944;2023-11-18T03:35:16;2.50;1.00
29353;DHT22;16344;50.364;8.944;2023-11-18T03:37:41;2.60;1.00
29353;DHT22;16344;50.364;8.944;2023-11-18T03:42:33;2.50;1.00
29353;DHT22;16344;50.364;8.944;2023-11-18T03:44:58;2.50;1.00
29353;DHT22;16344;50.364;8.944;2023-11-18T03:47:23;2.50;1.00
29353;DHT22;16344;50.364;8.944;2023-11-18T03:49:52;2.50;1.00
29353;DHT22;16344;50.364;8.944;2023-11-18T03:52:19;2.50;1.00
29353;DHT22;16344;50.364;8.944;2023-11-18T03:54:45;2.50;1.00
29353;DHT22;16344;50.364;8.944;2023-11-18T03:57:10;2.50;1.00
29353;DHT22;16344;50.364;8.944;2023-11-18T03:59:35;2.50;1.00
29353;DHT22;16344;50.364;8.944;2023-11-18T04:02:01;2.60;1.00
29353;DHT22;16344;50.364;8.944;2023-11-18T04:04:26;2.60;1.00
29353;DHT22;16344;50.364;8.944;2023-11-18T04:06:52;2.60;1.00
29353;DHT22;16344;50.364;8.944;2023-11-18T04:09:18;2.60;1.00
29353;DHT22;16344;50.364;8.944;2023-11-18T04:11:43;2.70;1.00
29353;DHT22;16344;50.364;8.944;2023-11-18T04:14:10;2.70;1.00
29353;DHT22;16344;50.364;8.944;2023-11-18T04:16:36;2.70;1.00
29353;DHT22;16344;50.364;8.944;2023-11-18T04:19:03;2.80;1.00
29353;DHT22;16344;50.364;8.944;2023-11-18T04:21:29;2.80;1.00
29353;DHT22;16344;50.364;8.944;2023-11-18T04:23:54;2.80;1.00
29353;DHT22;16344;50.364;8.944;2023-11-18T04:26:20;2.90;1.00
29353;DHT22;16344;50.364;8.944;2023-11-18T04:28:45;2.80;1.00
29353;DHT22;16344;50.364;8.944;2023-11-18T04:31:11;2.80;1.00
29353;DHT22;16344;50.364;8.944;2023-11-18T04:33:36;2.80;1.00
29353;DHT22;16344;50.364;8.944;2023-11-18T04:36:02;2.80;1.00
29353;DHT22;16344;50.364;8.944;2023-11-18T04:38:28;2.80;1.00
29353;DHT22;16344;50.364;8.944;2023-11-18T04:40:53;2.80;1.00
29353;DHT22;16344;50.364;8.944;2023-11-18T04:43:19;2.70;1.00
29353;DHT22;16344;50.364;8.944;2023-11-18T04:45:45;2.80;1.00
29353;DHT22;16344;50.364;8.944;2023-11-18T04:48:11;2.60;1.00
29353;DHT22;16344;50.364;8.944;2023-11-18T04:50:41;2.80;1.00
29353;DHT22;16344;50.364;8.944;2023-11-18T04:53:07;2.90;1.00
29353;DHT22;16344;50.364;8.944;2023-11-18T04:55:38;2.90;1.00
29353;DHT22;16344;50.364;8.944;2023-11-18T04:58:04;2.80;1.00
29353;DHT22;16344;50.364;8.944;2023-11-18T05:00:34;2.90;1.00
29353;DHT22;16344;50.364;8.944;2023-11-18T05:03:00;2.80;1.00
29353;DHT22;16344;50.364;8.944;2023-11-18T05:05:25;2.90;1.00
29353;DHT22;16344;50.364;8.944;2023-11-18T05:07:51;2.80;1.00
29353;DHT22;16344;50.364;8.944;2023-11-18T05:10:16;2.80;1.00
29353;DHT22;16344;50.364;8.944;2023-11-18T05:12:42;2.70;1.00
29353;DHT22;16344;50.364;8.944;2023-11-18T05:15:09;2.70;1.00
29353;DHT22;16344;50.364;8.944;2023-11-18T05:17:37;2.70;1.00
29353;DHT22;16344;50.364;8.944;2023-11-18T05:23:07;2.80;1.00
29353;DHT22;16344;50.364;8.944;2023-11-18T05:25:41;2.90;1.00
29353;DHT22;16344;50.364;8.944;2023-11-18T05:28:08;2.80;1.00
29353;DHT22;16344;50.364;8.944;2023-11-18T05:30:37;2.70;1.00
29353;DHT22;16344;50.364;8.944;2023-11-18T05:33:03;2.60;1.00
29353;DHT22;16344;50.364;8.944;2023-11-18T05:35:32;2.30;1.00
29353;DHT22;16344;50.364;8.944;2023-11-18T05:37:58;2.20;1.00
29353;DHT22;16344;50.364;8.944;2023-11-18T05:40:24;2.30;1.00
29353;DHT22;16344;50.364;8.944;2023-11-18T05:42:50;2.30;1.00
29353;DHT22;16344;50.364;8.944;2023-11-18T05:45:17;2.40;1.00
29353;DHT22;16344;50.364;8.944;2023-11-18T05:47:56;2.50;1.00
29353;DHT22;16344;50.364;8.944;2023-11-18T05:50:22;2.50;1.00
29353;DHT22;16344;50.364;8.944;2023-11-18T05:52:50;2.60;1.00
29353;DHT22;16344;50.364;8.944;2023-11-18T05:55:15;2.60;1.00
29353;DHT22;16344;50.364;8.944;2023-11-18T05:57:41;2.70;1.00
29353;DHT22;16344;50.364;8.944;2023-11-18T06:00:11;2.90;1.00
29353;DHT22;16344;50.364;8.944;2023-11-18T06:02:37;2.90;1.00
29353;DHT22;16344;50.364;8.944;2023-11-18T06:05:04;3.00;1.00
29353;DHT22;16344;50.364;8.944;2023-11-18T06:07:30;3.10;1.00
29353;DHT22;16344;50.364;8.944;2023-11-18T06:09:55;3.10;1.00
29353;DHT22;16344;50.364;8.944;2023-11-18T06:12:23;3.00;1.00
29353;DHT22;16344;50.364;8.944;2023-11-18T06:14:48;3.00;1.00
29353;DHT22;16344;50.364;8.944;2023-11-18T06:17:16;2.90;1.00
29353;DHT22;16344;50.364;8.944;2023-11-18T06:19:44;2.90;1.00
29353;DHT22;16344;50.364;8.944;2023-11-18T06:22:09;2.90;1.00
29353;DHT22;16344;50.364;8.944;2023-11-18T06:24:36;2.90;1.00
29353;DHT22;16344;50.364;8.944;2023-11-18T06:27:01;2.90;1.00
29353;DHT22;16344;50.364;8.944;2023-11-18T06:29:26;3.00;1.00
29353;DHT22;16344;50.364;8.944;2023-11-18T06:31:54;3.00;1.00
29353;DHT22;16344;50.364;8.944;2023-11-18T06:34:20;3.00;1.00
29353;DHT22;16344;50.364;8.944;2023-11-18T06:36:46;3.00;1.00
29353;DHT22;16344;50.364;8.944;2023-11-18T06:39:11;3.00;1.00
29353;DHT22;16344;50.364;8.944;2023-11-18T06:41:38;2.90;1.00
29353;DHT22;16344;50.364;8.944;2023-11-18T06:44:13;2.90;1.00
29353;DHT22;16344;50.364;8.944;2023-11-18T06:46:43;2.90;1.00
29353;DHT22;16344;50.364;8.944;2023-11-18T06:49:09;2.90;1.00
29353;DHT22;16344;50.364;8.944;2023-11-18T06:51:40;2.90;1.00
29353;DHT22;16344;50.364;8.944;2023-11-18T06:54:06;2.90;1.00
29353;DHT22;16344;50.364;8.944;2023-11-18T06:56:41;3.00;1.00
29353;DHT22;16344;50.364;8.944;2023-11-18T06:59:11;2.80;1.00
29353;DHT22;16344;50.364;8.944;2023-11-18T07:01:40;2.90;1.00
29353;DHT22;16344;50.364;8.944;2023-11-18T07:04:09;2.90;1.00
29353;DHT22;16344;50.364;8.944;2023-11-18T07:06:34;2.90;1.00
29353;DHT22;16344;50.364;8.944;2023-11-18T07:09:03;3.00;1.00
29353;DHT22;16344;50.364;8.944;2023-11-18T07:11:34;2.90;1.00
29353;DHT22;16344;50.364;8.944;2023-11-18T07:14:00;2.90;1.00
29353;DHT22;16344;50.364;8.944;2023-11-18T07:16:25;2.90;1.00
29353;DHT22;16344;50.364;8.944;2023-11-18T07:18:51;2.90;1.00
29353;DHT22;16344;50.364;8.944;2023-11-18T07:21:16;2.90;1.00
29353;DHT22;16344;50.364;8.944;2023-11-18T07:23:42;3.00;1.00
29353;DHT22;16344;50.364;8.944;2023-11-18T07:26:08;2.90;1.00
29353;DHT22;16344;50.364;8.944;2023-11-18T07:28:35;2.80;1.00
29353;DHT22;16344;50.364;8.944;2023-11-18T07:31:01;2.80;1.00
29353;DHT22;16344;50.364;8.944;2023-11-18T07:33:30;2.80;1.00
29353;DHT22;16344;50.364;8.944;2023-11-18T07:35:57;2.90;1.00
29353;DHT22;16344;50.364;8.944;2023-11-18T07:38:23;2.90;1.00
29353;DHT22;16344;50.364;8.944;2023-11-18T07:40:48;2.80;1.00
29353;DHT22;16344;50.364;8.944;2023-11-18T07:43:17;2.70;1.00
29353;DHT22;16344;50.364;8.944;2023-11-18T07:45:43;2.80;1.00
29353;DHT22;16344;50.364;8.944;2023-11-18T07:48:09;2.80;1.00
29353;DHT22;16344;50.364;8.944;2023-11-18T07:50:38;2.80;1.00
29353;DHT22;16344;50.364;8.944;2023-11-18T07:53:05;2.70;1.00
29353;DHT22;16344;50.364;8.944;2023-11-18T07:55:32;2.70;1.00
29353;DHT22;16344;50.364;8.944;2023-11-18T07:58:00;2.70;1.00
29353;DHT22;16344;50.364;8.944;2023-11-18T08:00:26;2.70;1.00
29353;DHT22;16344;50.364;8.944;2023-11-18T08:02:52;2.70;1.00
29353;DHT22;16344;50.364;8.944;2023-11-18T08:05:19;2.90;1.00
29353;DHT22;16344;50.364;8.944;2023-11-18T08:07:45;2.90;1.00
29353;DHT22;16344;50.364;8.944;2023-11-18T08:10:10;2.90;1.00
29353;DHT22;16344;50.364;8.944;2023-11-18T08:12:39;3.00;1.00
29353;DHT22;16344;50.364;8.944;2023-11-18T08:15:05;3.10;1.00
29353;DHT22;16344;50.364;8.944;2023-11-18T08:17:32;3.10;1.00
29353;DHT22;16344;50.364;8.944;2023-11-18T08:19:57;3.20;1.00
29353;DHT22;16344;50.364;8.944;2023-11-18T08:22:23;3.30;1.00
29353;DHT22;16344;50.364;8.944;2023-11-18T08:24:49;3.30;1.00
29353;DHT22;16344;50.364;8.944;2023-11-18T08:27:14;3.40;1.00
29353;DHT22;16344;50.364;8.944;2023-11-18T08:29:40;3.50;1.00
29353;DHT22;16344;50.364;8.944;2023-11-18T08:32:06;3.50;1.00
29353;DHT22;16344;50.364;8.944;2023-11-18T08:34:35;3.70;1.00
29353;DHT22;16344;50.364;8.944;2023-11-18T08:37:01;3.70;1.00
29353;DHT22;16344;50.364;8.944;2023-11-18T08:39:28;3.70;1.00
29353;DHT22;16344;50.364;8.944;2023-11-18T08:41:54;3.80;1.00
29353;DHT22;16344;50.364;8.944;2023-11-18T08:44:19;3.80;1.00
29353;DHT22;16344;50.364;8.944;2023-11-18T08:46:45;3.90;1.00
29353;DHT22;16344;50.364;8.944;2023-11-18T08:49:10;4.00;1.00
29353;DHT22;16344;50.364;8.944;2023-11-18T08:51:36;4.00;1.00
29353;DHT22;16344;50.364;8.944;2023-11-18T08:54:02;3.90;1.00
29353;DHT22;16344;50.364;8.944;2023-11-18T08:56:42;4.00;1.00
29353;DHT22;16344;50.364;8.944;2023-11-18T08:59:09;4.00;1.00
29353;DHT22;16344;50.364;8.944;2023-11-18T09:01:34;4.00;1.00
29353;DHT22;16344;50.364;8.944;2023-11-18T09:04:00;4.00;1.00
29353;DHT22;16344;50.364;8.944;2023-11-18T09:06:26;4.10;1.00
29353;DHT22;16344;50.364;8.944;2023-11-18T09:08:53;4.00;1.00
29353;DHT22;16344;50.364;8.944;2023-11-18T09:11:20;4.00;1.00
29353;DHT22;16344;50.364;8.944;2023-11-18T09:13:47;4.00;1.00
29353;DHT22;16344;50.364;8.944;2023-11-18T09:16:16;4.10;1.00
29353;DHT22;16344;50.364;8.944;2023-11-18T09:18:42;4.10;1.00
29353;DHT22;16344;50.364;8.944;2023-11-18T09:21:13;4.10;1.00
29353;DHT22;16344;50.364;8.944;2023-11-18T09:23:45;4.20;1.00
29353;DHT22;16344;50.364;8.944;2023-11-18T09:26:13;4.30;1.00
29353;DHT22;16344;50.364;8.944;2023-11-18T09:28:39;4.40;1.00
29353;DHT22;16344;50.364;8.944;2023-11-18T09:31:05;4.50;1.00
29353;DHT22;16344;50.364;8.944;2023-11-18T09:33:31;4.40;1.00
29353;DHT22;16344;50.364;8.944;2023-11-18T09:36:00;4.60;1.00
29353;DHT22;16344;50.364;8.944;2023-11-18T09:40:53;4.60;1.00
29353;DHT22;16344;50.364;8.944;2023-11-18T09:43:19;4.70;1.00
29353;DHT22;16344;50.364;8.944;2023-11-18T09:45:49;4.70;1.00
29353;DHT22;16344;50.364;8.944;2023-11-18T09:48:18;4.80;1.00
29353;DHT22;16344;50.364;8.944;2023-11-18T09:50:45;4.80;1.00
29353;DHT22;16344;50.364;8.944;2023-11-18T09:53:14;4.90;1.00
29353;DHT22;16344;50.364;8.944;2023-11-18T09:55:42;4.90;1.00
29353;DHT22;16344;50.364;8.944;2023-11-18T09:58:13;4.90;1.00
29353;DHT22;16344;50.364;8.944;2023-11-18T10:00:40;5.00;1.00
29353;DHT22;16344;50.364;8.944;2023-11-18T10:03:07;5.00;1.00
29353;DHT22;16344;50.364;8.944;2023-11-18T10:05:33;5.00;1.00
29353;DHT22;16344;50.364;8.944;2023-11-18T10:08:04;5.10;1.00
29353;DHT22;16344;50.364;8.944;2023-11-18T10:10:33;5.10;1.00
29353;DHT22;16344;50.364;8.944;2023-11-18T10:13:01;5.10;1.00
29353;DHT22;16344;50.364;8.944;2023-11-18T10:15:29;5.10;1.00
29353;DHT22;16344;50.364;8.944;2023-11-18T10:17:56;4.90;1.00
29353;DHT22;16344;50.364;8.944;2023-11-18T10:20:44;4.80;1.00
29353;DHT22;16344;50.364;8.944;2023-11-18T10:23:10;4.90;1.00
29353;DHT22;16344;50.364;8.944;2023-11-18T10:25:57;4.90;1.00
29353;DHT22;16344;50.364;8.944;2023-11-18T10:30:56;5.00;1.00
29353;DHT22;16344;50.364;8.944;2023-11-18T10:33:24;5.00;1.00
29353;DHT22;16344;50.364;8.944;2023-11-18T10:35:55;5.10;1.00
29353;DHT22;16344;50.364;8.944;2023-11-18T10:38:21;5.10;1.00
29353;DHT22;16344;50.364;8.944;2023-11-18T10:40:52;5.20;1.00
29353;DHT22;16344;50.364;8.944;2023-11-18T10:43:18;5.20;1.00
29353;DHT22;16344;50.364;8.944;2023-11-18T10:45:43;5.20;1.00
29353;DHT22;16344;50.364;8.944;2023-11-18T10:48:12;5.30;1.00
29353;DHT22;16344;50.364;8.944;2023-11-18T10:50:41;5.30;1.00
29353;DHT22;16344;50.364;8.944;2023-11-18T10:53:07;5.30;1.00
29353;DHT22;16344;50.364;8.944;2023-11-18T10:55:39;5.40;1.00
29353;DHT22;16344;50.364;8.944;2023-11-18T10:58:05;5.40;1.00
29353;DHT22;16344;50.364;8.944;2023-11-18T11:00:48;5.50;1.00
29353;DHT22;16344;50.364;8.944;2023-11-18T11:03:14;5.50;1.00
29353;DHT22;16344;50.364;8.944;2023-11-18T11:05:40;5.50;1.00
29353;DHT22;16344;50.364;8.944;2023-11-18T11:08:08;5.40;1.00
29353;DHT22;16344;50.364;8.944;2023-11-18T11:10:33;5.50;1.00
29353;DHT22;16344;50.364;8.944;2023-11-18T11:13:01;5.50;1.00
29353;DHT22;16344;50.364;8.944;2023-11-18T11:15:30;5.40;1.00
29353;DHT22;16344;50.364;8.944;2023-11-18T11:18:03;5.50;1.00
29353;DHT22;16344;50.364;8.944;2023-11-18T11:20:34;5.50;1.00
29353;DHT22;16344;50.364;8.944;2023-11-18T11:25:46;5.70;1.00
29353;DHT22;16344;50.364;8.944;2023-11-18T11:28:22;5.60;1.00
29353;DHT22;16344;50.364;8.944;2023-11-18T11:30:55;5.70;1.00
29353;DHT22;16344;50.364;8.944;2023-11-18T11:33:29;5.70;1.00
29353;DHT22;16344;50.364;8.944;2023-11-18T11:36:06;5.80;1.00
29353;DHT22;16344;50.364;8.944;2023-11-18T11:38:37;5.70;1.00
29353;DHT22;16344;50.364;8.944;2023-11-18T11:41:03;5.70;1.00
29353;DHT22;16344;50.364;8.944;2023-11-18T11:43:31;5.80;1.00
29353;DHT22;16344;50.364;8.944;2023-11-18T11:46:03;5.80;1.00
29353;DHT22;16344;50.364;8.944;2023-11-18T11:48:37;5.80;1.00
29353;DHT22;16344;50.364;8.944;2023-11-18T11:51:25;5.80;1.00
29353;DHT22;16344;50.364;8.944;2023-11-18T11:54:07;5.90;1.00
29353;DHT22;16344;50.364;8.944;2023-11-18T11:56:46;5.90;1.00
29353;DHT22;16344;50.364;8.944;2023-11-18T11:59:15;5.90;1.00
29353;DHT22;16344;50.364;8.944;2023-11-18T12:01:41;5.90;1.00
29353;DHT22;16344;50.364;8.944;2023-11-18T12:04:12;6.00;1.00
29353;DHT22;16344;50.364;8.944;2023-11-18T12:06:46;6.00;1.00
29353;DHT22;16344;50.364;8.944;2023-11-18T12:09:15;6.00;1.00
29353;DHT22;16344;50.364;8.944;2023-11-18T12:11:47;6.10;1.00
29353;DHT22;16344;50.364;8.944;2023-11-18T12:14:14;6.10;1.00
29353;DHT22;16344;50.364;8.944;2023-11-18T12:16:58;6.10;1.00
29353;DHT22;16344;50.364;8.944;2023-11-18T12:19:38;6.20;1.00
29353;DHT22;16344;50.364;8.944;2023-11-18T12:22:16;6.20;1.00
29353;DHT22;16344;50.364;8.944;2023-11-18T12:33:01;6.30;1.00
29353;DHT22;16344;50.364;8.944;2023-11-18T12:35:40;6.30;1.00
29353;DHT22;16344;50.364;8.944;2023-11-18T12:38:19;6.30;1.00
29353;DHT22;16344;50.364;8.944;2023-11-18T12:43:34;6.30;1.00
29353;DHT22;16344;50.364;8.944;2023-11-18T12:46:11;6.30;1.00
29353;DHT22;16344;50.364;8.944;2023-11-18T12:48:43;6.30;1.00
29353;DHT22;16344;50.364;8.944;2023-11-18T12:51:12;6.30;1.00
29353;DHT22;16344;50.364;8.944;2023-11-18T12:53:50;6.40;1.00
29353;DHT22;16344;50.364;8.944;2023-11-18T12:56:21;6.40;1.00
29353;DHT22;16344;50.364;8.944;2023-11-18T12:58:48;6.40;1.00
29353;DHT22;16344;50.364;8.944;2023-11-18T13:01:14;6.40;1.00
29353;DHT22;16344;50.364;8.944;2023-11-18T13:03:41;6.50;1.00
29353;DHT22;16344;50.364;8.944;2023-11-18T13:06:10;6.50;1.00
29353;DHT22;16344;50.364;8.944;2023-11-18T13:08:40;6.50;1.00
29353;DHT22;16344;50.364;8.944;2023-11-18T13:11:06;6.50;1.00
29353;DHT22;16344;50.364;8.944;2023-11-18T13:13:37;6.50;1.00
29353;DHT22;16344;50.364;8.944;2023-11-18T13:16:04;6.50;1.00
29353;DHT22;16344;50.364;8.944;2023-11-18T13:18:41;6.50;1.00
29353;DHT22;16344;50.364;8.944;2023-11-18T13:21:06;6.50;1.00
29353;DHT22;16344;50.364;8.944;2023-11-18T13:23:32;6.50;1.00
29353;DHT22;16344;50.364;8.944;2023-11-18T13:25:57;6.60;1.00
29353;DHT22;16344;50.364;8.944;2023-11-18T13:28:25;6.50;1.00
29353;DHT22;16344;50.364;8.944;2023-11-18T13:30:51;6.50;1.00
29353;DHT22;16344;50.364;8.944;2023-11-18T13:33:16;6.50;1.00
29353;DHT22;16344;50.364;8.944;2023-11-18T13:35:42;6.50;1.00
29353;DHT22;16344;50.364;8.944;2023-11-18T13:38:08;6.60;1.00
29353;DHT22;16344;50.364;8.944;2023-11-18T13:40:43;6.60;1.00
29353;DHT22;16344;50.364;8.944;2023-11-18T13:43:09;6.70;1.00
29353;DHT22;16344;50.364;8.944;2023-11-18T13:45:35;6.70;1.00
29353;DHT22;16344;50.364;8.944;2023-11-18T13:48:01;6.80;1.00
29353;DHT22;16344;50.364;8.944;2023-11-18T13:50:27;6.80;1.00
29353;DHT22;16344;50.364;8.944;2023-11-18T13:52:53;6.80;1.00
29353;DHT22;16344;50.364;8.944;2023-11-18T13:55:19;6.80;1.00
29353;DHT22;16344;50.364;8.944;2023-11-18T13:57:56;6.90;1.00
29353;DHT22;16344;50.364;8.944;2023-11-18T14:00:26;6.80;1.00
29353;DHT22;16344;50.364;8.944;2023-11-18T14:02:55;6.90;1.00
29353;DHT22;16344;50.364;8.944;2023-11-18T14:05:21;6.80;1.00
29353;DHT22;16344;50.364;8.944;2023-11-18T14:07:52;6.90;1.00
29353;DHT22;16344;50.364;8.944;2023-11-18T14:10:21;6.80;1.00
29353;DHT22;16344;50.364;8.944;2023-11-18T14:13:03;6.80;1.00
29353;DHT22;16344;50.364;8.944;2023-11-18T14:15:31;6.80;1.00
29353;DHT22;16344;50.364;8.944;2023-11-18T14:17:56;6.80;1.00
29353;DHT22;16344;50.364;8.944;2023-11-18T14:20:23;6.90;1.00
29353;DHT22;16344;50.364;8.944;2023-11-18T14:22:48;6.80;1.00
29353;DHT22;16344;50.364;8.944;2023-11-18T14:25:14;6.90;1.00
29353;DHT22;16344;50.364;8.944;2023-11-18T14:27:40;6.90;1.00
29353;DHT22;16344;50.364;8.944;2023-11-18T14:30:06;6.80;1.00
29353;DHT22;16344;50.364;8.944;2023-11-18T14:32:34;6.80;1.00
29353;DHT22;16344;50.364;8.944;2023-11-18T14:35:00;6.70;1.00
29353;DHT22;16344;50.364;8.944;2023-11-18T14:37:25;6.70;1.00
29353;DHT22;16344;50.364;8.944;2023-11-18T14:39:51;6.60;1.00
29353;DHT22;16344;50.364;8.944;2023-11-18T14:42:18;6.70;1.00
29353;DHT22;16344;50.364;8.944;2023-11-18T14:44:46;6.60;1.00
29353;DHT22;16344;50.364;8.944;2023-11-18T14:47:11;6.70;1.00
29353;DHT22;16344;50.364;8.944;2023-11-18T14:49:37;6.70;1.00
29353;DHT22;16344;50.364;8.944;2023-11-18T14:52:02;6.70;1.00
29353;DHT22;16344;50.364;8.944;2023-11-18T14:54:28;6.70;1.00
29353;DHT22;16344;50.364;8.944;2023-11-18T14:56:55;6.70;1.00
29353;DHT22;16344;50.364;8.944;2023-11-18T14:59:21;6.70;1.00
29353;DHT22;16344;50.364;8.944;2023-11-18T15:01:48;6.70;1.00
29353;DHT22;16344;50.364;8.944;2023-11-18T15:04:13;6.70;1.00
29353;DHT22;16344;50.364;8.944;2023-11-18T15:06:39;6.70;1.00
29353;DHT22;16344;50.364;8.944;2023-11-18T15:09:06;6.70;1.00
29353;DHT22;16344;50.364;8.944;2023-11-18T15:11:36;6.70;1.00
29353;DHT22;16344;50.364;8.944;2023-11-18T15:14:01;6.70;1.00
29353;DHT22;16344;50.364;8.944;2023-11-18T15:16:28;6.60;1.00
29353;DHT22;16344;50.364;8.944;2023-11-18T15:18:53;6.60;1.00
29353;DHT22;16344;50.364;8.944;2023-11-18T15:21:20;6.60;1.00
29353;DHT22;16344;50.364;8.944;2023-11-18T15:23:45;6.60;1.00
29353;DHT22;16344;50.364;8.944;2023-11-18T15:26:11;6.60;1.00
29353;DHT22;16344;50.364;8.944;2023-11-18T15:28:37;6.60;1.00
29353;DHT22;16344;50.364;8.944;2023-11-18T15:31:02;6.60;1.00
29353;DHT22;16344;50.364;8.944;2023-11-18T15:33:29;6.50;1.00
29353;DHT22;16344;50.364;8.944;2023-11-18T15:35:55;6.50;1.00
29353;DHT22;16344;50.364;8.944;2023-11-18T15:38:20;6.50;1.00
29353;DHT22;16344;50.364;8.944;2023-11-18T15:40:49;6.50;1.00
29353;DHT22;16344;50.364;8.944;2023-11-18T15:43:15;6.50;1.00
29353;DHT22;16344;50.364;8.944;2023-11-18T15:45:41;6.50;1.00
29353;DHT22;16344;50.364;8.944;2023-11-18T15:48:09;6.50;1.00
29353;DHT22;16344;50.364;8.944;2023-11-18T15:50:35;6.50;1.00
29353;DHT22;16344;50.364;8.944;2023-11-18T15:53:03;6.50;1.00
29353;DHT22;16344;50.364;8.944;2023-11-18T15:55:28;6.50;1.00
29353;DHT22;16344;50.364;8.944;2023-11-18T15:57:54;6.50;1.00
29353;DHT22;16344;50.364;8.944;2023-11-18T16:00:21;6.50;1.00
29353;DHT22;16344;50.364;8.944;2023-11-18T16:02:47;6.50;1.00
29353;DHT22;16344;50.364;8.944;2023-11-18T16:05:14;6.50;1.00
29353;DHT22;16344;50.364;8.944;2023-11-18T16:07:46;6.50;1.00
29353;DHT22;16344;50.364;8.944;2023-11-18T16:10:12;6.50;1.00
29353;DHT22;16344;50.364;8.944;2023-11-18T16:12:46;6.60;1.00
29353;DHT22;16344;50.364;8.944;2023-11-18T16:15:12;6.60;1.00
29353;DHT22;16344;50.364;8.944;2023-11-18T16:17:39;6.60;1.00
29353;DHT22;16344;50.364;8.944;2023-11-18T16:20:06;6.60;1.00
29353;DHT22;16344;50.364;8.944;2023-11-18T16:22:32;6.60;1.00
29353;DHT22;16344;50.364;8.944;2023-11-18T16:24:57;6.60;1.00
29353;DHT22;16344;50.364;8.944;2023-11-18T16:27:24;6.60;1.00
29353;DHT22;16344;50.364;8.944;2023-11-18T16:29:49;6.70;1.00